Time;durP1;ratioP1;P1;durP2;ratioP2;P2;SDS_P1;SDS_P2;PMS_P1;PMS_P2;Temp;Humidity;BMP_temperature;BMP_pressure;BME280_temperature;BME280_humidity;BME280_pressure;Samples;Min_cycle;Max_cycle;Signal;HPM_P1;HPM_P2
2022/01/28 00:00:35;;;;;;;45.30;11.63;;;4.30;42.80;;;;;;5049455;28;20915;-67
2022/01/28 00:03:07;;;;;;;45.17;10.83;;;4.30;43.10;;;;;;5051256;28;20497;-69
2022/01/28 00:05:36;;;;;;;47.50;10.20;;;4.30;43.10;;;;;;5050490;28;20458;-68
2022/01/28 00:08:04;;;;;;;47.20;10.30;;;4.40;43.10;;;;;;5051843;28;20457;-68
2022/01/28 00:10:33;;;;;;;45.67;10.20;;;4.40;43.30;;;;;;5051276;28;20872;-69
2022/01/28 00:40:40;;;;;;;46.03;10.00;;;4.60;42.80;;;;;;5027198;28;20462;-69
2022/01/28 00:43:07;;;;;;;46.80;10.33;;;4.60;42.60;;;;;;5044559;28;20474;-69
2022/01/28 00:45:34;;;;;;;46.67;10.87;;;4.60;42.70;;;;;;5049186;28;20465;-68
2022/01/28 00:48:01;;;;;;;46.53;10.43;;;4.60;42.60;;;;;;5051118;28;20462;-68
2022/01/28 00:50:29;;;;;;;47.07;9.90;;;4.60;42.50;;;;;;5049359;28;20462;-68
2022/01/28 00:52:56;;;;;;;44.30;9.77;;;4.60;42.50;;;;;;5049093;28;20961;-68
2022/01/28 00:55:22;;;;;;;44.97;10.20;;;4.60;42.50;;;;;;5049917;28;20462;-68
2022/01/28 00:57:49;;;;;;;43.87;9.67;;;4.60;42.50;;;;;;5050544;28;20469;-68
2022/01/28 01:00:17;;;;;;;45.37;9.40;;;4.60;42.40;;;;;;5050046;28;20971;-68
2022/01/28 01:02:43;;;;;;;44.43;8.90;;;4.60;42.50;;;;;;5050361;28;20508;-68
2022/01/28 01:05:11;;;;;;;41.83;9.00;;;4.60;42.40;;;;;;5034890;28;20458;-67
2022/01/28 01:07:40;;;;;;;43.27;8.60;;;4.60;42.40;;;;;;5031042;28;20455;-67
2022/01/28 01:10:08;;;;;;;43.87;8.50;;;4.70;42.40;;;;;;5030540;28;20470;-67
2022/01/28 01:12:40;;;;;;;44.47;9.90;;;4.70;42.40;;;;;;5030575;28;20558;-67
2022/01/28 01:15:09;;;;;;;43.50;9.17;;;4.70;42.50;;;;;;5045469;28;20896;-69
2022/01/28 01:17:39;;;;;;;44.17;8.90;;;4.70;42.40;;;;;;5050470;28;21184;-66
2022/01/28 01:20:31;;;;;;;44.27;8.53;;;4.70;42.40;;;;;;5048930;28;20486;-67
2022/01/28 01:23:07;;;;;;;46.37;9.50;;;4.70;42.30;;;;;;5049723;28;20532;-67
2022/01/28 01:25:43;;;;;;;48.93;9.90;;;4.70;42.30;;;;;;5049760;28;20465;-68
2022/01/28 01:28:10;;;;;;;45.63;9.70;;;4.70;42.30;;;;;;5049803;28;21046;-68
2022/01/28 01:30:40;;;;;;;42.50;8.93;;;4.70;42.20;;;;;;5049702;28;20470;-68
2022/01/28 01:33:07;;;;;;;45.93;9.70;;;4.70;42.10;;;;;;5048444;28;20478;-68
2022/01/28 01:35:34;;;;;;;45.07;9.53;;;4.70;42.00;;;;;;5047475;28;20473;-68
2022/01/28 01:38:05;;;;;;;49.73;9.40;;;4.70;42.10;;;;;;5050347;28;20464;-67
2022/01/28 01:40:36;;;;;;;46.33;10.10;;;4.70;42.10;;;;;;5049347;28;20482;-67
2022/01/28 01:43:10;;;;;;;44.60;9.20;;;4.60;42.00;;;;;;5049276;28;20484;-66
2022/01/28 01:45:57;;;;;;;45.90;9.10;;;4.60;42.20;;;;;;5048942;28;20465;-68
2022/01/28 01:53:55;;;;;;;42.07;8.40;;;4.60;42.30;;;;;;5029613;28;20542;-68
2022/01/28 01:56:22;;;;;;;43.47;8.80;;;4.60;42.40;;;;;;5029767;28;20853;-67
2022/01/28 01:58:49;;;;;;;44.10;9.40;;;4.60;42.60;;;;;;5029873;28;20463;-67
2022/01/28 02:01:15;;;;;;;44.93;9.17;;;4.50;42.70;;;;;;5046789;28;20477;-68
2022/01/28 02:03:42;;;;;;;43.23;9.00;;;4.50;42.60;;;;;;5049279;28;21031;-67
2022/01/28 02:06:09;;;;;;;45.00;9.30;;;4.60;42.60;;;;;;5045179;28;20469;-67
2022/01/28 02:08:36;;;;;;;48.57;11.03;;;4.60;42.50;;;;;;5029041;28;20451;-67
2022/01/28 02:11:04;;;;;;;42.97;8.23;;;4.50;42.60;;;;;;5029274;28;20462;-67
2022/01/28 02:13:36;;;;;;;42.67;9.23;;;4.50;42.50;;;;;;5029116;28;20490;-68
2022/01/28 02:16:03;;;;;;;44.33;9.27;;;4.50;42.60;;;;;;5029431;28;20458;-68
2022/01/28 02:18:29;;;;;;;42.77;9.00;;;4.60;42.60;;;;;;5049467;28;20469;-68
2022/01/28 02:21:04;;;;;;;44.40;9.93;;;4.50;42.30;;;;;;5046027;28;20462;-68
2022/01/28 02:23:31;;;;;;;42.40;9.10;;;4.50;42.50;;;;;;5049410;28;20951;-68
2022/01/28 02:26:00;;;;;;;45.97;8.77;;;4.50;42.50;;;;;;5048856;28;20516;-67
2022/01/28 02:28:28;;;;;;;43.77;9.87;;;4.50;42.40;;;;;;5048435;28;20561;-67
2022/01/28 02:30:55;;;;;;;41.30;7.60;;;4.50;42.30;;;;;;5045315;28;20466;-67
2022/01/28 02:33:25;;;;;;;42.17;8.70;;;4.50;42.20;;;;;;5047291;28;20568;-68
2022/01/28 02:35:52;;;;;;;43.87;9.03;;;4.50;42.30;;;;;;5048107;28;20458;-69
2022/01/28 02:38:23;;;;;;;43.43;8.47;;;4.50;42.30;;;;;;5048813;28;20973;-68
2022/01/28 02:40:55;;;;;;;44.77;9.17;;;4.50;42.10;;;;;;5048025;28;20990;-68
2022/01/28 02:43:32;;;;;;;41.80;7.80;;;4.50;42.30;;;;;;5046488;28;20486;-67
2022/01/28 02:46:05;;;;;;;42.00;8.27;;;4.50;42.30;;;;;;5048415;28;20457;-67
2022/01/28 02:48:33;;;;;;;41.33;8.50;;;4.50;42.20;;;;;;5048549;28;20885;-68
2022/01/28 02:51:06;;;;;;;46.13;8.73;;;4.50;42.20;;;;;;5046825;28;20462;-68
2022/01/28 02:53:47;;;;;;;40.90;7.50;;;4.50;42.20;;;;;;5047317;28;20481;-68
2022/01/28 02:56:18;;;;;;;45.40;9.30;;;4.50;42.20;;;;;;5048650;28;20454;-69
2022/01/28 02:58:46;;;;;;;41.80;8.30;;;4.50;42.20;;;;;;5047200;28;20982;-68
2022/01/28 03:01:15;;;;;;;43.00;9.30;;;4.50;42.00;;;;;;5047473;28;20477;-67
2022/01/28 03:03:43;;;;;;;44.27;8.80;;;4.50;42.20;;;;;;5048254;28;20518;-67
2022/01/28 03:06:11;;;;;;;44.07;9.30;;;4.50;42.30;;;;;;5046592;28;20516;-66
2022/01/28 03:08:43;;;;;;;43.73;8.40;;;4.50;42.20;;;;;;5047819;28;20831;-66
2022/01/28 03:14:15;;;;;;;41.67;7.43;;;4.50;42.20;;;;;;5046496;28;20470;-69
2022/01/28 03:16:57;;;;;;;42.07;7.73;;;4.40;42.20;;;;;;5047574;28;20531;-69
2022/01/28 03:19:28;;;;;;;44.33;8.30;;;4.40;42.20;;;;;;5047780;28;20577;-67
2022/01/28 03:21:55;;;;;;;42.20;7.77;;;4.40;42.30;;;;;;5046009;28;21261;-67
2022/01/28 03:24:24;;;;;;;40.53;7.80;;;4.40;42.10;;;;;;5048375;28;20518;-67
2022/01/28 03:26:54;;;;;;;42.87;8.70;;;4.40;42.10;;;;;;5047152;28;20462;-67
2022/01/28 03:29:20;;;;;;;42.03;8.23;;;4.50;42.20;;;;;;5048387;28;20493;-66
2022/01/28 03:31:47;;;;;;;41.73;7.77;;;4.50;42.10;;;;;;5046401;28;20481;-67
2022/01/28 03:34:14;;;;;;;42.77;7.47;;;4.50;42.00;;;;;;5046376;28;21008;-67
2022/01/28 03:36:41;;;;;;;42.30;7.90;;;4.50;42.00;;;;;;5047077;28;20465;-67
2022/01/28 03:39:10;;;;;;;40.33;6.90;;;4.50;41.90;;;;;;5046350;28;20468;-67
2022/01/28 03:41:39;;;;;;;39.50;7.57;;;4.50;41.80;;;;;;5048073;28;20553;-67
2022/01/28 03:44:06;;;;;;;40.40;7.10;;;4.50;41.90;;;;;;5048077;28;20520;-68
2022/01/28 03:46:33;;;;;;;39.60;6.97;;;4.50;41.80;;;;;;5048324;28;20540;-67
2022/01/28 03:49:00;;;;;;;39.47;7.17;;;4.50;41.80;;;;;;5045218;28;20912;-67
2022/01/28 03:51:27;;;;;;;42.23;7.20;;;4.50;41.80;;;;;;5047966;28;20557;-67
2022/01/28 03:53:54;;;;;;;40.97;7.00;;;4.60;41.70;;;;;;5047554;28;20488;-68
2022/01/28 03:56:21;;;;;;;40.30;6.73;;;4.50;41.70;;;;;;5048218;28;20464;-67
2022/01/28 03:58:49;;;;;;;39.90;7.50;;;4.50;41.70;;;;;;5048020;28;20466;-67
2022/01/28 04:01:20;;;;;;;40.20;6.50;;;4.60;41.60;;;;;;5046953;28;20528;-67
2022/01/28 04:04:00;;;;;;;38.27;6.17;;;4.60;41.60;;;;;;5047462;28;20508;-67
2022/01/28 04:11:58;;;;;;;37.33;5.77;;;4.60;41.10;;;;;;5051272;28;20488;-67
2022/01/28 04:14:39;;;;;;;45.63;6.93;;;4.60;41.00;;;;;;5047471;22;20515;-66
2022/01/28 04:17:21;;;;;;;39.37;6.00;;;4.60;40.90;;;;;;5031375;28;20537;-67
2022/01/28 04:19:50;;;;;;;38.20;6.20;;;4.60;40.80;;;;;;5027431;28;20462;-68
2022/01/28 04:22:17;;;;;;;40.87;6.77;;;4.60;40.70;;;;;;5033105;28;20495;-66
2022/01/28 04:24:44;;;;;;;38.97;6.73;;;4.60;40.50;;;;;;5028818;28;20478;-65
2022/01/28 04:27:11;;;;;;;38.53;7.17;;;4.60;40.40;;;;;;5030239;28;20473;-64
2022/01/28 04:29:39;;;;;;;40.53;6.50;;;4.60;40.40;;;;;;5028853;28;20459;-64
2022/01/28 04:32:07;;;;;;;38.23;6.40;;;4.70;40.50;;;;;;5033473;28;20475;-66
2022/01/28 04:34:35;;;;;;;38.97;7.17;;;4.60;40.40;;;;;;5061291;22;20495;-60
2022/01/28 04:37:10;;;;;;;38.23;6.63;;;4.60;40.40;;;;;;5064477;28;20479;-60
2022/01/28 04:39:44;;;;;;;38.97;7.90;;;4.60;40.30;;;;;;5066052;28;20873;-60
2022/01/28 04:42:21;;;;;;;36.70;5.90;;;4.70;40.30;;;;;;5059070;28;20482;-61
2022/01/28 04:44:58;;;;;;;37.93;6.27;;;4.70;40.20;;;;;;5058954;28;20482;-60
2022/01/28 04:47:32;;;;;;;39.07;6.77;;;4.70;40.10;;;;;;5064447;28;21016;-61
2022/01/28 04:50:08;;;;;;;37.40;7.23;;;4.70;40.00;;;;;;5055894;28;20464;-61
2022/01/28 04:58:23;;;;;;;38.03;6.10;;;4.70;39.70;;;;;;5054010;28;20533;-61
2022/01/28 05:01:03;;;;;;;38.30;7.10;;;4.70;39.70;;;;;;5063902;28;20504;-61
2022/01/28 05:03:52;;;;;;;36.60;7.00;;;4.70;39.70;;;;;;5061570;28;20570;-61
2022/01/28 05:09:52;;;;;;;39.57;6.77;;;4.70;39.70;;;;;;5061636;28;20529;-60
2022/01/28 05:12:47;;;;;;;38.00;6.50;;;4.70;39.60;;;;;;5058992;28;20553;-61
2022/01/28 05:15:38;;;;;;;39.00;7.53;;;4.60;39.50;;;;;;5062641;28;20564;-60
2022/01/28 05:24:11;;;;;;;37.90;6.33;;;4.60;39.90;;;;;;5058921;28;20468;-60
2022/01/28 05:26:40;;;;;;;36.70;5.40;;;4.60;39.90;;;;;;5066179;28;20501;-60
2022/01/28 05:29:07;;;;;;;37.90;5.97;;;4.60;39.80;;;;;;5062169;28;20510;-61
2022/01/28 05:31:34;;;;;;;36.27;5.57;;;4.60;39.80;;;;;;5058929;28;20470;-60
2022/01/28 05:34:02;;;;;;;41.77;7.03;;;4.60;39.70;;;;;;5064193;28;20501;-61
2022/01/28 05:36:29;;;;;;;37.80;7.63;;;4.70;39.50;;;;;;5060608;28;20461;-61
2022/01/28 05:38:56;;;;;;;38.00;6.33;;;4.70;39.10;;;;;;5061192;28;20466;-61
2022/01/28 05:41:22;;;;;;;38.40;5.60;;;4.70;39.00;;;;;;5065268;28;20457;-61
2022/01/28 05:43:49;;;;;;;38.80;6.07;;;4.70;39.10;;;;;;5059624;28;21026;-61
2022/01/28 05:46:17;;;;;;;36.17;5.33;;;4.70;38.80;;;;;;5057381;28;20871;-61
2022/01/28 05:48:44;;;;;;;36.87;6.47;;;4.80;38.70;;;;;;5063049;28;20457;-63
2022/01/28 05:51:12;;;;;;;38.10;5.47;;;4.80;38.50;;;;;;5062330;28;20466;-59
2022/01/28 05:53:39;;;;;;;38.47;5.23;;;4.80;38.40;;;;;;5066099;28;21080;-61
2022/01/28 05:56:06;;;;;;;38.80;7.37;;;4.80;38.40;;;;;;5065516;28;20449;-61
2022/01/28 05:58:32;;;;;;;36.50;5.53;;;4.80;38.10;;;;;;5065027;28;21135;-61
2022/01/28 06:00:59;;;;;;;38.37;5.40;;;4.80;38.10;;;;;;5063235;28;20485;-61
2022/01/28 06:03:26;;;;;;;41.97;5.80;;;4.70;38.20;;;;;;5060438;28;20477;-60
2022/01/28 06:05:53;;;;;;;39.30;6.20;;;4.70;38.10;;;;;;5069451;28;20488;-61
2022/01/28 06:08:21;;;;;;;38.70;6.10;;;4.70;38.10;;;;;;5066781;28;21006;-60
2022/01/28 06:10:48;;;;;;;36.30;6.00;;;4.80;37.60;;;;;;5066428;28;20550;-60
2022/01/28 06:13:14;;;;;;;37.40;6.33;;;4.80;37.50;;;;;;5067182;28;20480;-60
2022/01/28 06:15:42;;;;;;;38.03;5.30;;;4.80;37.50;;;;;;5068566;28;20500;-60
2022/01/28 06:18:09;;;;;;;37.20;5.10;;;4.70;37.40;;;;;;5066569;28;20461;-59
2022/01/28 06:20:35;;;;;;;37.17;6.20;;;4.80;37.40;;;;;;5067789;28;20460;-60
2022/01/28 06:23:03;;;;;;;36.47;5.17;;;4.70;37.30;;;;;;5066766;28;20509;-60
2022/01/28 06:25:31;;;;;;;37.37;5.27;;;4.70;37.00;;;;;;5064157;28;20481;-60
2022/01/28 06:27:58;;;;;;;38.50;6.80;;;4.60;36.60;;;;;;5062628;28;20841;-60
2022/01/28 06:30:25;;;;;;;37.20;5.30;;;4.60;36.70;;;;;;5063280;28;20864;-60
2022/01/28 06:32:52;;;;;;;35.67;4.90;;;4.50;37.00;;;;;;5059127;28;20456;-60
2022/01/28 06:35:18;;;;;;;38.30;5.80;;;4.50;37.10;;;;;;5065642;28;20485;-59
2022/01/28 06:37:46;;;;;;;38.10;6.20;;;4.50;37.10;;;;;;5064912;28;20457;-60
2022/01/28 06:40:14;;;;;;;38.50;5.47;;;4.50;37.20;;;;;;5065095;28;20976;-60
2022/01/28 06:42:43;;;;;;;41.73;5.40;;;4.50;37.10;;;;;;5060302;28;20477;-61
2022/01/28 06:45:11;;;;;;;38.37;5.53;;;4.50;37.10;;;;;;5066829;28;20492;-60
2022/01/28 06:47:37;;;;;;;38.37;5.50;;;4.50;36.90;;;;;;5067556;28;20462;-61
2022/01/28 06:50:05;;;;;;;36.10;5.60;;;4.50;36.80;;;;;;5065666;28;20453;-59
2022/01/28 06:52:32;;;;;;;37.73;5.80;;;4.50;36.90;;;;;;5067825;28;20498;-60
2022/01/28 06:55:00;;;;;;;36.47;5.83;;;4.50;37.00;;;;;;5059351;28;20476;-60
2022/01/28 06:57:27;;;;;;;39.33;5.40;;;4.50;37.10;;;;;;5066718;28;20456;-59
2022/01/28 06:59:56;;;;;;;37.37;5.60;;;4.50;37.10;;;;;;5055916;28;20457;-62
2022/01/28 07:02:23;;;;;;;37.47;5.30;;;4.60;37.00;;;;;;5061211;28;20469;-63
2022/01/28 07:04:49;;;;;;;36.60;5.27;;;4.60;36.90;;;;;;5065236;28;20500;-63
2022/01/28 07:07:16;;;;;;;36.23;5.07;;;4.60;36.80;;;;;;5062447;28;20465;-65
2022/01/28 07:09:43;;;;;;;39.87;6.00;;;4.60;36.30;;;;;;5065078;28;20538;-67
2022/01/28 07:12:11;;;;;;;36.80;4.93;;;4.60;36.30;;;;;;5070366;28;20464;-60
2022/01/28 07:14:37;;;;;;;39.20;5.30;;;4.60;36.20;;;;;;5066269;28;20484;-61
2022/01/28 07:17:06;;;;;;;38.17;5.30;;;4.60;36.10;;;;;;5072220;28;20848;-61
2022/01/28 07:19:32;;;;;;;36.70;4.43;;;4.70;36.20;;;;;;5067525;28;20481;-61
2022/01/28 07:21:59;;;;;;;38.83;4.37;;;4.70;35.60;;;;;;5067651;28;20450;-60
2022/01/28 07:24:26;;;;;;;40.00;7.33;;;4.70;35.50;;;;;;5065573;28;20990;-60
2022/01/28 07:26:53;;;;;;;36.10;5.67;;;4.70;35.00;;;;;;5066172;28;20469;-60
2022/01/28 07:29:22;;;;;;;35.80;5.73;;;4.70;35.20;;;;;;5062927;28;20468;-63
2022/01/28 07:31:49;;;;;;;36.03;5.43;;;4.70;35.50;;;;;;5058106;28;20526;-61
2022/01/28 07:34:17;;;;;;;38.60;4.80;;;4.70;35.60;;;;;;5056827;28;20488;-62
2022/01/28 07:36:43;;;;;;;39.67;5.50;;;4.70;35.10;;;;;;5063896;28;20980;-60
2022/01/28 07:39:10;;;;;;;35.77;4.93;;;4.70;35.00;;;;;;5056980;28;20457;-61
2022/01/28 07:41:37;;;;;;;35.30;4.70;;;4.70;35.20;;;;;;5064700;28;20470;-61
2022/01/28 07:44:05;;;;;;;37.20;5.10;;;4.70;35.20;;;;;;5066413;28;20485;-61
2022/01/28 07:46:31;;;;;;;41.00;6.30;;;4.70;35.10;;;;;;5069142;28;20469;-61
2022/01/28 07:48:58;;;;;;;38.23;4.93;;;4.70;35.20;;;;;;5068595;28;20461;-61
2022/01/28 07:51:27;;;;;;;37.93;5.80;;;4.80;35.30;;;;;;5066774;28;20536;-61
2022/01/28 07:53:54;;;;;;;37.57;6.03;;;5.10;35.30;;;;;;5065699;28;20491;-62
2022/01/28 07:56:22;;;;;;;38.47;5.30;;;6.00;33.90;;;;;;5068220;28;21224;-61
2022/01/28 07:58:49;;;;;;;37.67;6.03;;;6.90;31.40;;;;;;5066759;28;20457;-63
2022/01/28 08:01:15;;;;;;;39.00;5.40;;;7.50;30.00;;;;;;5060618;28;20480;-60
2022/01/28 08:03:42;;;;;;;36.77;4.97;;;8.00;27.90;;;;;;5070485;28;20508;-60
2022/01/28 08:06:09;;;;;;;38.93;5.00;;;8.40;27.00;;;;;;5070574;28;20473;-60
2022/01/28 08:08:37;;;;;;;38.27;5.00;;;9.10;25.30;;;;;;5070751;28;20826;-60
2022/01/28 08:11:04;;;;;;;35.53;5.27;;;9.70;24.10;;;;;;5068942;28;20996;-61
2022/01/28 08:13:31;;;;;;;36.07;4.23;;;10.10;22.50;;;;;;5068437;28;20460;-61
2022/01/28 08:15:58;;;;;;;34.57;4.20;;;10.60;21.40;;;;;;5063789;28;20465;-60
2022/01/28 08:18:24;;;;;;;35.10;4.30;;;10.90;19.50;;;;;;5068620;28;20461;-62
2022/01/28 08:20:52;;;;;;;36.10;5.33;;;11.10;18.10;;;;;;5062262;28;20549;-62
2022/01/28 08:23:19;;;;;;;33.40;3.97;;;11.20;17.50;;;;;;5065921;28;20992;-62
2022/01/28 08:25:48;;;;;;;34.70;4.17;;;11.30;17.40;;;;;;5064828;28;20485;-62
2022/01/28 08:28:15;;;;;;;34.33;4.50;;;11.40;16.90;;;;;;5069429;28;20456;-62
2022/01/28 08:30:42;;;;;;;33.43;4.30;;;11.50;16.60;;;;;;5063364;28;20496;-62
2022/01/28 08:33:09;;;;;;;32.10;4.00;;;11.70;17.20;;;;;;5062313;28;20465;-62
2022/01/28 08:35:38;;;;;;;33.23;4.07;;;11.80;16.40;;;;;;5069325;28;20511;-61
2022/01/28 08:38:13;;;;;;;32.00;3.60;;;11.90;16.60;;;;;;5067987;28;20492;-62
2022/01/28 08:40:40;;;;;;;33.33;4.60;;;12.10;15.30;;;;;;5066290;28;20474;-61
2022/01/28 08:43:08;;;;;;;33.70;4.20;;;12.30;16.00;;;;;;5065562;28;20458;-62
2022/01/28 08:45:35;;;;;;;31.97;3.93;;;12.50;16.10;;;;;;5063102;28;20489;-61
2022/01/28 08:48:02;;;;;;;31.57;3.87;;;12.70;15.60;;;;;;5067683;28;20484;-62
2022/01/28 08:50:29;;;;;;;32.07;4.20;;;13.20;14.60;;;;;;5068817;28;20978;-61
2022/01/28 08:52:55;;;;;;;32.60;5.00;;;13.70;13.30;;;;;;5061646;28;20547;-62
2022/01/28 08:55:24;;;;;;;31.97;3.80;;;14.60;11.80;;;;;;5065547;28;20472;-61
2022/01/28 08:57:50;;;;;;;31.60;3.80;;;15.00;11.30;;;;;;5060888;28;20450;-60
2022/01/28 09:00:19;;;;;;;31.60;3.97;;;14.70;10.60;;;;;;5067505;28;20454;-62
2022/01/28 09:02:46;;;;;;;33.87;4.97;;;14.10;10.10;;;;;;5067657;28;20457;-61
2022/01/28 09:05:13;;;;;;;33.90;4.07;;;13.40;10.40;;;;;;5061995;28;20493;-62
2022/01/28 09:07:40;;;;;;;35.43;4.47;;;12.80;11.80;;;;;;5069468;28;20454;-63
2022/01/28 09:10:13;;;;;;;33.23;4.57;;;12.30;12.80;;;;;;5070676;28;20920;-62
2022/01/28 09:12:49;;;;;;;34.77;4.20;;;11.90;13.30;;;;;;5067241;28;20582;-64
2022/01/28 09:15:16;;;;;;;34.43;4.10;;;11.40;14.40;;;;;;5061769;28;20503;-62
2022/01/28 09:17:44;;;;;;;34.27;3.97;;;11.00;15.30;;;;;;5054787;28;20449;-61
2022/01/28 09:20:11;;;;;;;37.17;5.70;;;10.70;16.00;;;;;;5065783;28;20461;-60
2022/01/28 09:22:38;;;;;;;32.57;3.57;;;10.40;16.20;;;;;;5062768;28;20465;-61
2022/01/28 09:25:06;;;;;;;34.90;4.10;;;10.30;17.00;;;;;;5063422;28;20873;-61
2022/01/28 09:27:33;;;;;;;33.63;3.53;;;10.10;16.70;;;;;;5063285;28;20469;-61
2022/01/28 09:29:59;;;;;;;36.37;3.93;;;9.90;17.10;;;;;;5068061;28;20461;-60
2022/01/28 09:32:26;;;;;;;34.50;4.67;;;9.70;17.00;;;;;;5066207;28;20477;-61
2022/01/28 09:34:54;;;;;;;38.23;4.50;;;9.60;17.50;;;;;;5060515;28;20492;-61
2022/01/28 09:37:21;;;;;;;35.17;4.13;;;9.70;17.90;;;;;;5065882;28;20532;-61
2022/01/28 09:39:49;;;;;;;38.97;4.43;;;10.00;18.10;;;;;;5065783;28;20466;-61
2022/01/28 09:42:19;;;;;;;36.00;4.30;;;10.10;17.20;;;;;;5064429;28;20462;-61
2022/01/28 09:44:47;;;;;;;34.80;3.90;;;10.20;17.20;;;;;;5061936;28;20859;-61
2022/01/28 09:47:15;;;;;;;34.93;3.83;;;10.70;17.10;;;;;;5066692;28;20465;-61
2022/01/28 09:49:42;;;;;;;33.40;3.57;;;12.80;14.80;;;;;;5062893;28;20465;-61
2022/01/28 09:52:13;;;;;;;33.17;4.00;;;15.50;10.70;;;;;;5066929;28;20468;-61
2022/01/28 09:54:43;;;;;;;32.30;3.87;;;17.10;7.70;;;;;;5067176;28;20833;-61
2022/01/28 09:57:10;;;;;;;32.23;4.03;;;17.90;7.10;;;;;;5063264;28;20518;-60
2022/01/28 09:59:38;;;;;;;34.40;3.63;;;19.50;3.50;;;;;;5067276;28;20969;-61
2022/01/28 10:02:05;;;;;;;32.33;3.60;;;19.00;3.00;;;;;;5065870;28;20473;-61
2022/01/28 10:04:32;;;;;;;33.10;3.00;;;18.00;3.70;;;;;;5066528;28;20484;-60
2022/01/28 10:06:59;;;;;;;33.63;4.00;;;17.00;5.60;;;;;;5062737;28;20496;-61
2022/01/28 10:09:27;;;;;;;32.70;3.80;;;16.10;6.10;;;;;;5068820;28;20450;-62
2022/01/28 10:12:12;;;;;;;31.83;3.00;;;15.20;7.20;;;;;;5068506;28;20973;-62
2022/01/28 10:14:59;;;;;;;31.40;3.90;;;14.50;8.20;;;;;;5065631;28;20876;-59
2022/01/28 10:17:26;;;;;;;33.60;4.10;;;14.20;9.00;;;;;;5058905;28;21028;-60
2022/01/28 10:20:06;;;;;;;35.90;4.27;;;14.00;9.20;;;;;;5066329;28;20488;-60
2022/01/28 10:22:33;;;;;;;32.07;3.90;;;13.80;10.20;;;;;;5058584;28;20468;-59
2022/01/28 10:25:03;;;;;;;35.27;4.30;;;13.40;10.00;;;;;;5065444;28;20488;-62
2022/01/28 10:27:30;;;;;;;35.00;3.70;;;12.90;10.70;;;;;;5066908;28;20801;-60
2022/01/28 10:30:05;;;;;;;36.53;3.10;;;12.50;11.30;;;;;;5069202;28;20453;-60
2022/01/28 10:32:32;;;;;;;36.97;4.23;;;12.00;11.90;;;;;;5063903;28;20465;-59
2022/01/28 10:34:59;;;;;;;36.03;4.30;;;11.70;12.50;;;;;;5079758;23;20485;-63
2022/01/28 10:37:29;;;;;;;41.60;4.27;;;11.50;13.00;;;;;;5047801;28;20466;-64
2022/01/28 10:39:58;;;;;;;35.87;3.67;;;11.20;14.00;;;;;;5043531;28;20968;-63
2022/01/28 10:42:39;;;;;;;33.17;3.20;;;11.00;14.30;;;;;;5048217;28;20469;-62
2022/01/28 10:45:11;;;;;;;35.00;3.50;;;10.70;15.00;;;;;;5046658;28;20486;-65
2022/01/28 10:47:40;;;;;;;36.47;4.30;;;10.50;15.10;;;;;;5041844;28;20493;-62
2022/01/28 10:50:20;;;;;;;34.07;3.17;;;10.30;15.50;;;;;;5062090;28;20462;-61
2022/01/28 10:52:48;;;;;;;33.17;3.23;;;10.00;15.90;;;;;;5048372;28;20450;-62
2022/01/28 10:55:19;;;;;;;36.63;3.20;;;9.90;16.30;;;;;;5048092;28;20488;-63
2022/01/28 10:57:58;;;;;;;38.17;3.60;;;10.00;16.10;;;;;;5048923;28;20462;-62
2022/01/28 11:00:28;;;;;;;35.50;3.87;;;9.80;16.60;;;;;;5059058;28;20453;-61
2022/01/28 11:02:56;;;;;;;34.67;2.97;;;9.70;16.90;;;;;;5044129;28;20525;-62
2022/01/28 11:05:23;;;;;;;36.70;3.80;;;10.10;16.20;;;;;;5051293;28;20489;-63
2022/01/28 11:07:50;;;;;;;33.80;3.03;;;11.40;16.10;;;;;;5047731;28;20469;-62
2022/01/28 11:10:17;;;;;;;33.73;3.40;;;13.40;12.40;;;;;;5055086;28;20472;-63
2022/01/28 11:12:44;;;;;;;34.70;3.33;;;12.90;10.60;;;;;;5048137;28;20465;-63
2022/01/28 11:15:13;;;;;;;33.00;2.90;;;11.80;12.00;;;;;;5049089;28;20466;-64
2022/01/28 11:17:40;;;;;;;33.80;2.90;;;11.50;14.50;;;;;;5047768;28;20466;-65
2022/01/28 11:20:09;;;;;;;33.17;3.20;;;13.70;12.80;;;;;;5052573;28;20458;-63
2022/01/28 11:22:55;;;;;;;33.90;3.00;;;14.80;10.00;;;;;;5048769;28;20465;-63
2022/01/28 11:25:36;;;;;;;37.00;3.60;;;16.10;8.30;;;;;;5047412;28;20567;-62
2022/01/28 11:28:08;;;;;;;33.07;2.80;;;17.10;7.30;;;;;;5051292;28;20540;-64
2022/01/28 11:30:36;;;;;;;32.03;3.60;;;18.50;6.10;;;;;;5046628;28;20474;-64
2022/01/28 11:33:08;;;;;;;32.60;2.57;;;18.70;3.00;;;;;;5047671;28;21065;-62
2022/01/28 11:35:37;;;;;;;36.00;2.90;;;17.20;4.60;;;;;;5053766;28;20488;-62
2022/01/28 11:38:34;;;;;;;30.93;2.50;;;15.80;5.50;;;;;;5056954;28;20458;-63
2022/01/28 11:41:06;;;;;;;32.00;2.93;;;14.60;6.90;;;;;;5038953;28;20458;-62
2022/01/28 11:43:35;;;;;;;34.83;3.23;;;13.70;8.10;;;;;;5063485;28;20971;-63
2022/01/28 11:46:10;;;;;;;33.40;3.23;;;13.30;9.00;;;;;;5051948;28;20486;-62
2022/01/28 11:49:16;;;;;;;32.17;2.60;;;13.70;9.80;;;;;;5049735;28;20479;-62
2022/01/28 11:51:43;;;;;;;36.87;2.53;;;14.80;9.60;;;;;;5052225;28;21159;-63
2022/01/28 11:54:13;;;;;;;31.63;2.50;;;14.70;9.50;;;;;;5047834;28;20556;-62
2022/01/28 11:56:41;;;;;;;31.53;2.40;;;14.60;8.10;;;;;;5042876;28;20453;-63
2022/01/28 11:59:09;;;;;;;32.30;2.63;;;14.50;7.50;;;;;;5041772;28;20473;-61
2022/01/28 12:02:10;;;;;;;31.60;3.00;;;13.80;8.10;;;;;;5044384;28;20474;-63
2022/01/28 12:04:37;;;;;;;37.17;4.90;;;13.10;9.20;;;;;;5044153;28;20994;-63
2022/01/28 12:07:07;;;;;;;33.00;2.37;;;12.50;10.00;;;;;;5050042;28;20469;-62
2022/01/28 12:09:36;;;;;;;32.67;2.17;;;12.10;10.30;;;;;;5043944;28;20469;-63
2022/01/28 12:12:03;;;;;;;33.60;2.57;;;11.70;10.30;;;;;;5043949;28;20465;-63
2022/01/28 12:14:57;;;;;;;32.87;2.23;;;11.40;11.40;;;;;;5043056;28;20543;-63
2022/01/28 12:17:46;;;;;;;34.50;2.77;;;11.50;11.00;;;;;;5042362;28;21167;-63
2022/01/28 12:20:36;;;;;;;34.30;2.80;;;11.50;11.00;;;;;;5042922;28;20454;-61
2022/01/28 12:23:05;;;;;;;31.63;2.10;;;11.50;11.90;;;;;;5045744;28;20465;-63
2022/01/28 12:25:48;;;;;;;33.80;2.87;;;11.80;11.40;;;;;;5043430;28;20999;-61
2022/01/28 12:28:17;;;;;;;34.13;2.63;;;11.60;11.50;;;;;;5043968;28;20553;-61
2022/01/28 12:30:45;;;;;;;32.50;2.33;;;11.40;11.80;;;;;;5046584;28;20840;-62
2022/01/28 12:33:14;;;;;;;34.77;2.60;;;11.20;11.50;;;;;;5047425;28;20480;-63
2022/01/28 12:35:42;;;;;;;32.17;2.40;;;11.20;12.40;;;;;;5043363;28;20513;-61
2022/01/28 12:38:13;;;;;;;34.00;2.60;;;11.30;11.90;;;;;;5049191;28;20459;-63
2022/01/28 12:40:47;;;;;;;36.50;2.90;;;11.30;11.60;;;;;;5048143;28;20482;-62
2022/01/28 12:43:18;;;;;;;34.63;2.73;;;11.30;11.70;;;;;;5046066;28;20951;-61
2022/01/28 12:45:50;;;;;;;32.50;2.30;;;11.30;12.10;;;;;;5047968;28;20569;-62
2022/01/28 12:48:23;;;;;;;32.90;2.33;;;11.40;11.90;;;;;;5049735;28;20468;-62
2022/01/28 12:50:50;;;;;;;34.10;2.50;;;11.50;10.60;;;;;;5048906;28;20454;-62
2022/01/28 12:53:27;;;;;;;33.97;3.20;;;11.30;11.10;;;;;;5051536;28;20470;-63
2022/01/28 12:55:54;;;;;;;34.50;2.27;;;11.30;11.30;;;;;;5046553;28;21123;-62
2022/01/28 12:58:31;;;;;;;34.40;2.70;;;11.30;12.00;;;;;;5053026;28;20462;-62
2022/01/28 13:01:07;;;;;;;35.97;2.87;;;11.50;12.50;;;;;;5042397;28;20485;-61
2022/01/28 13:03:39;;;;;;;32.63;2.13;;;11.70;11.40;;;;;;5054888;28;20457;-63
2022/01/28 13:06:27;;;;;;;33.87;2.40;;;11.90;11.60;;;;;;5057509;28;20501;-63
2022/01/28 13:08:55;;;;;;;33.00;2.33;;;11.90;12.00;;;;;;5046950;28;20932;-63
2022/01/28 13:11:24;;;;;;;33.20;2.23;;;11.80;11.90;;;;;;5055181;28;20476;-62
2022/01/28 13:13:54;;;;;;;32.67;2.40;;;11.60;11.60;;;;;;5056727;28;20881;-63
2022/01/28 13:16:31;;;;;;;33.97;2.60;;;11.50;11.10;;;;;;5050569;28;20483;-62
2022/01/28 13:19:01;;;;;;;32.80;2.33;;;11.40;11.60;;;;;;5057789;28;20454;-64
2022/01/28 13:21:29;;;;;;;37.70;2.70;;;11.40;11.80;;;;;;5049440;28;20446;-62
2022/01/28 13:24:11;;;;;;;36.43;2.57;;;11.30;12.50;;;;;;5045655;28;21006;-62
2022/01/28 13:26:56;;;;;;;34.70;2.67;;;11.10;12.40;;;;;;5048297;28;20489;-64
2022/01/28 13:29:34;;;;;;;36.63;3.30;;;10.90;12.10;;;;;;5041144;28;20461;-62
2022/01/28 13:32:03;;;;;;;34.47;2.57;;;10.60;12.10;;;;;;5047048;28;20477;-62
2022/01/28 13:34:46;;;;;;;32.47;2.93;;;10.40;12.90;;;;;;5046273;28;21041;-62
2022/01/28 13:37:14;;;;;;;33.80;2.50;;;10.30;13.40;;;;;;5048213;28;20518;-63
2022/01/28 13:39:43;;;;;;;33.60;2.60;;;10.20;13.60;;;;;;5049207;28;20541;-61
2022/01/28 13:42:13;;;;;;;36.50;3.07;;;10.10;13.90;;;;;;5044276;28;20466;-62
2022/01/28 13:44:43;;;;;;;33.70;2.80;;;9.90;13.80;;;;;;5046776;28;20543;-61
2022/01/28 13:47:12;;;;;;;35.13;3.20;;;9.80;14.10;;;;;;5047990;28;20458;-61
2022/01/28 13:49:42;;;;;;;33.67;3.20;;;9.80;14.80;;;;;;5047148;28;20454;-61
2022/01/28 13:52:17;;;;;;;37.87;3.53;;;9.70;14.70;;;;;;5049379;28;20458;-63
2022/01/28 13:54:45;;;;;;;34.10;3.10;;;9.60;14.90;;;;;;5046092;28;20477;-64